createdAt,value
2023-02-19T00:01:47.702Z,93603.63
2023-02-19T00:04:18.040Z,93629.72
2023-02-19T00:06:46.402Z,93625.75
2023-02-19T00:09:16.215Z,93620.06
2023-02-19T00:11:44.635Z,93623.53
2023-02-19T00:14:15.764Z,93628.44
2023-02-19T00:16:42.958Z,93576.91
2023-02-19T00:19:15.044Z,93612.13
2023-02-19T00:21:42.955Z,93602.06
2023-02-19T00:24:12.157Z,93600.75
2023-02-19T00:26:41.006Z,93586.06
2023-02-19T00:29:12.488Z,93592.34
2023-02-19T00:31:40.527Z,93587.25
2023-02-19T00:34:09.630Z,93577.09
2023-02-19T00:36:38.790Z,93560.34
2023-02-19T00:39:07.615Z,93576.97
2023-02-19T00:41:34.896Z,93578.16
2023-02-19T00:44:05.122Z,93573.63
2023-02-19T00:46:38.503Z,93574.97
2023-02-19T00:49:07.923Z,93555.97
2023-02-19T00:51:37.572Z,93557.12
2023-02-19T00:54:06.162Z,93548.97
2023-02-19T00:56:34.070Z,93559.38
2023-02-19T00:59:01.763Z,93547.38
2023-02-19T01:01:29.068Z,93534.88
2023-02-19T01:03:56.460Z,93535.72
2023-02-19T01:06:24.529Z,93532.25
2023-02-19T01:08:52.120Z,93536.41
2023-02-19T01:11:20.587Z,93538.44
2023-02-19T01:13:48.489Z,93547.94
2023-02-19T01:16:22.152Z,93538.69
2023-02-19T01:18:49.873Z,93534.44
2023-02-19T01:21:21.004Z,93541.38
2023-02-19T01:23:49.641Z,93545.84
2023-02-19T01:26:21.768Z,93525.00
2023-02-19T01:28:49.431Z,93534.44
2023-02-19T01:31:20.544Z,93522.94
2023-02-19T01:33:50.466Z,93524.06
2023-02-19T01:36:18.361Z,93519.06
2023-02-19T01:38:46.347Z,93509.53
2023-02-19T01:41:17.805Z,93509.31
2023-02-19T01:44:11.606Z,93507.28
2023-02-19T01:46:40.753Z,93522.16
2023-02-19T01:49:08.424Z,93524.00
2023-02-19T01:51:39.463Z,93529.44
2023-02-19T01:54:08.801Z,93534.75
2023-02-19T01:56:38.606Z,93524.81
2023-02-19T01:59:07.643Z,93549.62
2023-02-19T02:01:36.183Z,93550.41
2023-02-19T02:04:04.379Z,93564.06
2023-02-19T02:06:41.410Z,93577.16
2023-02-19T02:09:28.049Z,93584.03
2023-02-19T02:11:55.893Z,93590.50
2023-02-19T02:14:30.021Z,93587.25
2023-02-19T02:17:16.086Z,93585.56
2023-02-19T02:20:08.151Z,93587.53
2023-02-19T02:22:50.958Z,93584.88
2023-02-19T02:25:37.061Z,93591.59
2023-02-19T02:28:23.805Z,93596.81
2023-02-19T02:30:56.634Z,93595.44
2023-02-19T02:33:39.795Z,93597.72
2023-02-19T02:36:25.499Z,93611.31
2023-02-19T02:38:54.359Z,93610.12
2023-02-19T02:41:22.257Z,93607.19
2023-02-19T02:43:49.657Z,93609.25
2023-02-19T02:46:23.751Z,93615.38
2023-02-19T02:48:55.598Z,93610.44
2023-02-19T02:51:31.170Z,93615.84
2023-02-19T02:54:35.558Z,93607.50
2023-02-19T02:57:07.120Z,93621.69
2023-02-19T02:59:39.933Z,93615.66
2023-02-19T03:02:18.902Z,93625.25
2023-02-19T03:05:35.921Z,93633.84
2023-02-19T03:08:12.993Z,93643.81
2023-02-19T03:10:50.334Z,93647.00
2023-02-19T03:13:47.734Z,93639.66
2023-02-19T03:16:47.034Z,93651.91
2023-02-19T03:19:19.414Z,93644.53
2023-02-19T03:21:59.217Z,93643.91
2023-02-19T03:24:55.724Z,93635.53
2023-02-19T03:27:28.181Z,93636.75
2023-02-19T03:29:59.439Z,93642.94
2023-02-19T03:32:59.038Z,93634.25
2023-02-19T03:35:34.516Z,93634.25
2023-02-19T03:38:04.695Z,93636.22
2023-02-19T03:40:42.370Z,93639.13
2023-02-19T03:43:12.653Z,93651.31
2023-02-19T03:46:01.765Z,93650.72
2023-02-19T03:48:35.736Z,93656.06
2023-02-19T03:51:29.001Z,93661.59
2023-02-19T03:54:13.322Z,93653.88
2023-02-19T03:56:53.429Z,93659.41
2023-02-19T03:59:27.623Z,93660.47
2023-02-19T04:02:06.545Z,93660.78
2023-02-19T04:05:21.269Z,93657.22
2023-02-19T04:07:52.361Z,93659.63
2023-02-19T04:10:22.012Z,93660.03
2023-02-19T04:13:01.874Z,93665.00
2023-02-19T04:15:33.870Z,93658.09
2023-02-19T04:18:07.130Z,93656.56
2023-02-19T04:20:40.559Z,93668.94
2023-02-19T04:23:08.072Z,93666.59
2023-02-19T04:25:38.332Z,93669.63
2023-02-19T04:28:05.815Z,93667.34
2023-02-19T04:30:33.211Z,93665.25
2023-02-19T04:33:00.929Z,93677.81
2023-02-19T04:35:28.248Z,93682.09
2023-02-19T04:37:55.560Z,93686.09
2023-02-19T04:40:23.072Z,93676.69
2023-02-19T04:42:50.405Z,93685.22
2023-02-19T04:45:17.772Z,93691.72
2023-02-19T04:47:45.470Z,93687.84
2023-02-19T04:50:13.023Z,93682.66
2023-02-19T04:52:40.307Z,93689.53
2023-02-19T04:55:09.071Z,93697.13
2023-02-19T04:57:36.464Z,93684.03
2023-02-19T05:00:04.896Z,93693.94
2023-02-19T05:02:32.606Z,93698.91
2023-02-19T05:05:00.169Z,93703.78
2023-02-19T05:07:27.479Z,93694.62
2023-02-19T05:09:55.165Z,93699.56
2023-02-19T05:12:22.452Z,93704.22
2023-02-19T05:14:49.765Z,93696.38
2023-02-19T05:17:17.424Z,93692.91
2023-02-19T05:19:45.494Z,93698.94
2023-02-19T05:22:12.816Z,93717.38
2023-02-19T05:24:42.872Z,93710.88
2023-02-19T05:27:10.150Z,93723.25
2023-02-19T05:29:37.525Z,93725.44
2023-02-19T05:32:05.285Z,93723.19
2023-02-19T05:34:32.780Z,93717.19
2023-02-19T05:37:00.053Z,93721.28
2023-02-19T05:39:27.740Z,93728.84
2023-02-19T05:41:55.322Z,93729.06
2023-02-19T05:44:22.652Z,93737.56
2023-02-19T05:46:50.567Z,93731.91
2023-02-19T05:49:17.848Z,93732.81
2023-02-19T05:51:45.379Z,93734.09
2023-02-19T05:54:14.185Z,93727.59
2023-02-19T05:56:42.655Z,93748.16
2023-02-19T05:59:19.618Z,93746.66
2023-02-19T06:01:48.295Z,93741.75
2023-02-19T06:04:16.157Z,93739.94
2023-02-19T06:06:43.995Z,93743.28
2023-02-19T06:09:11.765Z,93747.19
2023-02-19T06:11:40.253Z,93748.66
2023-02-19T06:14:07.576Z,93747.94
2023-02-19T06:16:34.869Z,93750.59
2023-02-19T06:19:04.319Z,93745.50
2023-02-19T06:21:31.955Z,93746.31
2023-02-19T06:23:59.434Z,93748.81
2023-02-19T06:26:27.116Z,93750.56
2023-02-19T06:28:54.797Z,93750.28
2023-02-19T06:31:23.217Z,93751.41
2023-02-19T06:33:51.064Z,93760.00
2023-02-19T06:36:23.602Z,93759.69
2023-02-19T06:38:52.138Z,93748.94
2023-02-19T06:41:19.823Z,93753.03
2023-02-19T06:43:47.532Z,93764.28
2023-02-19T06:46:15.473Z,93759.06
2023-02-19T06:48:45.177Z,93770.16
2023-02-19T06:51:14.535Z,93770.28
2023-02-19T06:53:42.187Z,93777.12
2023-02-19T06:56:33.599Z,93776.34
2023-02-19T06:59:03.881Z,93760.84
2023-02-19T07:01:33.756Z,93767.06
2023-02-19T07:04:02.371Z,93763.63
2023-02-19T07:06:30.265Z,93766.81
2023-02-19T07:08:59.640Z,93770.22
2023-02-19T07:11:29.262Z,93761.56
2023-02-19T07:13:57.108Z,93765.84
2023-02-19T07:16:25.497Z,93755.03
2023-02-19T07:18:53.677Z,93757.22
2023-02-19T07:21:21.580Z,93766.53
2023-02-19T07:23:49.185Z,93769.84
2023-02-19T07:26:19.240Z,93763.03
2023-02-19T07:28:49.184Z,93769.03
2023-02-19T07:31:18.455Z,93761.38
2023-02-19T07:33:46.436Z,93756.19
2023-02-19T07:36:16.699Z,93758.87
2023-02-19T07:38:44.955Z,93754.12
2023-02-19T07:41:12.835Z,93756.53
2023-02-19T07:43:41.689Z,93742.50
2023-02-19T07:46:12.434Z,93743.28
2023-02-19T07:48:41.613Z,93751.69
2023-02-19T07:51:14.036Z,93752.84
2023-02-19T07:53:41.815Z,93747.47
2023-02-19T07:56:14.299Z,93746.75
2023-02-19T07:58:42.003Z,93738.00
2023-02-19T08:01:14.059Z,93745.91
2023-02-19T08:03:42.988Z,93742.56
2023-02-19T08:06:11.705Z,93745.56
2023-02-19T08:08:40.282Z,93745.06
2023-02-19T08:11:26.894Z,93741.13
2023-02-19T08:13:54.311Z,93746.56
2023-02-19T08:16:36.925Z,93741.63
2023-02-19T08:19:09.698Z,93739.66
2023-02-19T08:21:37.694Z,93739.50
2023-02-19T08:24:05.433Z,93735.37
2023-02-19T08:26:33.573Z,93739.09
2023-02-19T08:29:01.561Z,93734.16
2023-02-19T08:31:29.003Z,93735.37
2023-02-19T08:33:56.828Z,93736.13
2023-02-19T08:36:24.736Z,93728.28
2023-02-19T08:38:52.202Z,93733.44
2023-02-19T08:41:19.643Z,93733.03
2023-02-19T08:43:47.471Z,93725.69
2023-02-19T08:46:15.367Z,93721.59
2023-02-19T08:48:42.709Z,93716.22
2023-02-19T08:51:12.385Z,93717.72
2023-02-19T08:53:40.936Z,93732.34
2023-02-19T08:56:11.859Z,93717.41
2023-02-19T08:58:40.177Z,93723.22
2023-02-19T09:01:12.837Z,93712.47
2023-02-19T09:03:41.198Z,93705.19
2023-02-19T09:06:12.384Z,93699.88
2023-02-19T09:08:39.892Z,93701.97
2023-02-19T09:11:07.574Z,93690.22
2023-02-19T09:13:34.970Z,93692.75
2023-02-19T09:16:06.437Z,93699.69
2023-02-19T09:18:34.416Z,93693.03
2023-02-19T09:21:06.196Z,93686.47
2023-02-19T09:23:35.775Z,93680.41
2023-02-19T09:26:06.980Z,93686.03
2023-02-19T09:28:34.953Z,93680.56
2023-02-19T09:31:06.795Z,93677.38
2023-02-19T09:33:34.857Z,93672.66
2023-02-19T09:36:03.396Z,93666.75
2023-02-19T09:38:31.160Z,93664.66
2023-02-19T09:41:06.038Z,93657.66
2023-02-19T09:43:34.231Z,93658.28
2023-02-19T09:46:09.907Z,93661.56
2023-02-19T09:48:37.284Z,93659.50
2023-02-19T09:51:05.436Z,93663.28
2023-02-19T09:53:44.493Z,93655.03
2023-02-19T09:56:12.410Z,93650.09
2023-02-19T09:58:56.395Z,93647.81
2023-02-19T10:01:29.146Z,93646.66
2023-02-19T10:03:56.908Z,93642.03
2023-02-19T10:06:26.637Z,93638.88
2023-02-19T10:09:00.128Z,93635.69
2023-02-19T10:11:28.134Z,93632.28
2023-02-19T10:14:10.915Z,93628.03
2023-02-19T10:16:43.996Z,93624.06
2023-02-19T10:19:13.050Z,93618.53
2023-02-19T10:21:41.821Z,93614.28
2023-02-19T10:24:18.653Z,93604.06
2023-02-19T10:26:46.377Z,93600.41
2023-02-19T10:29:13.815Z,93591.75
2023-02-19T10:31:41.156Z,93585.16
2023-02-19T10:34:18.881Z,93589.56
2023-02-19T10:36:51.314Z,93575.41
2023-02-19T10:39:21.916Z,93572.94
2023-02-19T10:41:51.282Z,93567.47
2023-02-19T10:44:24.483Z,93561.19
2023-02-19T10:46:55.536Z,93560.09
2023-02-19T10:49:30.375Z,93551.09
2023-02-19T10:52:02.654Z,93543.91
2023-02-19T10:54:35.607Z,93539.88
2023-02-19T10:57:15.247Z,93534.84
2023-02-19T10:59:51.090Z,93526.16
2023-02-19T11:02:20.737Z,93527.72
2023-02-19T11:05:16.427Z,93521.38
2023-02-19T11:07:51.022Z,93514.37
2023-02-19T11:10:34.620Z,93508.72
2023-02-19T11:13:04.563Z,93505.75
2023-02-19T11:15:32.264Z,93496.81
2023-02-19T11:18:05.315Z,93488.69
2023-02-19T11:20:33.692Z,93483.19
2023-02-19T11:23:15.800Z,93484.66
2023-02-19T11:25:49.230Z,93482.44
2023-02-19T11:28:36.865Z,93479.63
2023-02-19T11:31:19.938Z,93470.63
2023-02-19T11:34:26.324Z,93471.25
2023-02-19T11:37:09.780Z,93467.38
2023-02-19T11:39:38.327Z,93462.69
2023-02-19T11:42:13.076Z,93451.31
2023-02-19T11:44:49.498Z,93456.16
2023-02-19T11:47:41.623Z,93443.97
2023-02-19T11:50:43.267Z,93443.12
2023-02-19T11:53:34.719Z,93431.19
2023-02-19T11:56:16.334Z,93440.16
2023-02-19T11:59:06.447Z,93427.09
2023-02-19T12:01:45.877Z,93420.19
2023-02-19T12:04:38.144Z,93418.72
2023-02-19T12:07:37.926Z,93412.53
2023-02-19T12:10:19.553Z,93411.16
2023-02-19T12:12:51.706Z,93410.84
2023-02-19T12:15:26.615Z,93397.06
2023-02-19T12:18:19.593Z,93396.09
2023-02-19T12:21:14.505Z,93398.25
2023-02-19T12:24:01.270Z,93391.06
2023-02-19T12:26:38.099Z,93388.59
2023-02-19T12:29:43.123Z,93384.84
2023-02-19T12:32:29.089Z,93381.44
2023-02-19T12:35:32.956Z,93376.63
2023-02-19T12:38:15.686Z,93372.97
2023-02-19T12:41:01.840Z,93369.63
2023-02-19T12:43:32.215Z,93359.94
2023-02-19T12:46:02.187Z,93352.44
2023-02-19T12:48:39.108Z,93337.78
2023-02-19T12:51:27.592Z,93340.50
2023-02-19T12:54:04.221Z,93341.66
2023-02-19T12:56:36.637Z,93337.91
2023-02-19T12:59:09.358Z,93329.38
2023-02-19T13:02:05.650Z,93325.13
2023-02-19T13:04:56.015Z,93314.75
2023-02-19T13:07:29.106Z,93312.91
2023-02-19T13:10:04.516Z,93311.56
2023-02-19T13:12:39.610Z,93297.44
2023-02-19T13:15:17.987Z,93296.41
2023-02-19T13:17:52.441Z,93290.84
2023-02-19T13:20:32.804Z,93290.31
2023-02-19T13:23:24.702Z,93279.00
2023-02-19T13:26:05.818Z,93277.28
2023-02-19T13:28:50.416Z,93282.53
2023-02-19T13:31:37.087Z,93271.66
2023-02-19T13:34:16.769Z,93269.25
2023-02-19T13:36:44.867Z,93268.38
2023-02-19T13:39:17.569Z,93258.00
2023-02-19T13:42:01.681Z,93259.84
2023-02-19T13:44:31.958Z,93257.34
2023-02-19T13:47:01.067Z,93252.38
2023-02-19T13:49:28.423Z,93246.19
2023-02-19T13:52:01.340Z,93253.16
2023-02-19T13:54:40.313Z,93251.06
2023-02-19T13:57:22.996Z,93246.88
2023-02-19T13:59:52.024Z,93234.97
2023-02-19T14:02:28.293Z,93238.81
2023-02-19T14:04:57.636Z,93234.63
2023-02-19T14:07:28.081Z,93240.63
2023-02-19T14:09:55.834Z,93230.09
2023-02-19T14:12:33.413Z,93231.22
2023-02-19T14:15:39.551Z,93239.38
2023-02-19T14:18:43.896Z,93229.28
2023-02-19T14:21:38.242Z,93216.63
2023-02-19T14:24:11.300Z,93219.09
2023-02-19T14:26:40.594Z,93213.03
2023-02-19T14:29:10.806Z,93207.25
2023-02-19T14:31:39.104Z,93204.56
2023-02-19T14:34:19.666Z,93205.53
2023-02-19T14:36:54.998Z,93194.56
2023-02-19T14:39:32.054Z,93199.09
2023-02-19T14:42:03.185Z,93193.84
2023-02-19T14:44:35.635Z,93192.72
2023-02-19T14:47:09.431Z,93189.81
2023-02-19T14:49:58.476Z,93194.06
2023-02-19T14:52:33.560Z,93182.62
2023-02-19T14:55:04.223Z,93185.75
2023-02-19T14:57:38.487Z,93178.00
2023-02-19T15:00:40.149Z,93181.06
2023-02-19T15:03:26.082Z,93179.63
2023-02-19T15:05:58.784Z,93176.94
2023-02-19T15:08:34.363Z,93179.75
2023-02-19T15:11:04.461Z,93175.66
2023-02-19T15:13:32.190Z,93170.13
2023-02-19T15:15:59.995Z,93179.91
2023-02-19T15:18:30.096Z,93169.97
2023-02-19T15:21:03.864Z,93168.56
2023-02-19T15:23:34.480Z,93155.78
2023-02-19T15:26:02.616Z,93165.94
2023-02-19T15:28:33.106Z,93164.56
2023-02-19T15:31:00.864Z,93171.97
2023-02-19T15:33:28.677Z,93174.19
2023-02-19T15:35:59.919Z,93174.94
2023-02-19T15:38:29.033Z,93175.44
2023-02-19T15:40:57.997Z,93169.19
2023-02-19T15:43:28.220Z,93172.97
2023-02-19T15:46:04.258Z,93171.69
2023-02-19T15:48:39.369Z,93172.72
2023-02-19T15:51:14.537Z,93172.75
2023-02-19T15:53:48.940Z,93178.34
2023-02-19T15:56:28.339Z,93178.28
2023-02-19T15:59:07.170Z,93177.50
2023-02-19T16:01:39.311Z,93183.28
2023-02-19T16:04:14.347Z,93194.97
2023-02-19T16:06:57.054Z,93193.34
2023-02-19T16:09:39.993Z,93199.44
2023-02-19T16:12:24.966Z,93198.28
2023-02-19T16:14:52.738Z,93205.69
2023-02-19T16:17:23.336Z,93201.22
2023-02-19T16:20:03.575Z,93201.69
2023-02-19T16:22:41.038Z,93205.94
2023-02-19T16:25:25.540Z,93202.41
2023-02-19T16:27:53.666Z,93213.56
2023-02-19T16:30:34.054Z,93214.66
2023-02-19T16:33:36.612Z,93219.28
2023-02-19T16:36:23.736Z,93213.06
2023-02-19T16:39:09.569Z,93218.59
2023-02-19T16:41:40.056Z,93222.53
2023-02-19T16:44:27.561Z,93222.03
2023-02-19T16:46:59.705Z,93242.09
2023-02-19T16:49:27.375Z,93247.78
2023-02-19T16:51:54.933Z,93257.78
2023-02-19T16:54:22.305Z,93255.94
2023-02-19T16:56:49.988Z,93261.41
2023-02-19T16:59:17.419Z,93267.44
2023-02-19T17:01:44.829Z,93270.06
2023-02-19T17:04:15.921Z,93271.63
2023-02-19T17:06:44.587Z,93277.75
2023-02-19T17:09:12.279Z,93279.37
2023-02-19T17:11:40.343Z,93279.63
2023-02-19T17:14:09.493Z,93284.41
2023-02-19T17:16:40.584Z,93290.97
2023-02-19T17:19:18.212Z,93296.91
2023-02-19T17:21:47.438Z,93292.44
2023-02-19T17:24:15.828Z,93298.75
2023-02-19T17:26:43.295Z,93302.19
2023-02-19T17:29:14.432Z,93302.72
2023-02-19T17:31:41.964Z,93316.44
2023-02-19T17:34:09.498Z,93317.41
2023-02-19T17:36:38.266Z,93318.19
2023-02-19T17:39:08.937Z,93312.09
2023-02-19T17:41:36.650Z,93319.44
2023-02-19T17:44:03.994Z,93325.00
2023-02-19T17:46:31.457Z,93320.72
2023-02-19T17:48:59.288Z,93314.59
2023-02-19T17:51:26.685Z,93326.97
2023-02-19T17:53:53.995Z,93335.59
2023-02-19T17:56:25.683Z,93336.53
2023-02-19T17:58:57.067Z,93340.72
2023-02-19T18:01:25.002Z,93341.06
2023-02-19T18:03:52.895Z,93333.47
2023-02-19T18:06:20.774Z,93340.69
2023-02-19T18:08:52.722Z,93340.53
2023-02-19T18:11:24.593Z,93332.97
2023-02-19T18:13:52.455Z,93328.56
2023-02-19T18:16:20.194Z,93340.59
2023-02-19T18:18:47.786Z,93342.22
2023-02-19T18:21:15.112Z,93342.38
2023-02-19T18:23:42.764Z,93349.03
2023-02-19T18:26:11.368Z,93345.25
2023-02-19T18:28:38.823Z,93354.06
2023-02-19T18:31:06.939Z,93354.78
2023-02-19T18:33:35.462Z,93353.16
2023-02-19T18:36:03.523Z,93363.56
2023-02-19T18:38:31.196Z,93367.03
2023-02-19T18:40:58.990Z,93363.53
2023-02-19T18:43:26.452Z,93379.16
2023-02-19T18:45:54.299Z,93375.25
2023-02-19T18:48:22.974Z,93381.19
2023-02-19T18:50:50.404Z,93384.03
2023-02-19T18:53:18.145Z,93393.75
2023-02-19T18:55:45.600Z,93397.34
2023-02-19T18:58:12.869Z,93394.19
2023-02-19T19:00:40.667Z,93398.88
2023-02-19T19:03:08.110Z,93396.56
2023-02-19T19:05:35.410Z,93397.25
2023-02-19T19:08:03.407Z,93403.62
2023-02-19T19:10:31.069Z,93408.72
2023-02-19T19:12:58.785Z,93407.13
2023-02-19T19:15:26.778Z,93410.25
2023-02-19T19:17:55.163Z,93410.31
2023-02-19T19:20:23.570Z,93413.72
2023-02-19T19:22:52.839Z,93422.09
2023-02-19T19:25:21.425Z,93423.63
2023-02-19T19:27:50.828Z,93430.84
2023-02-19T19:30:20.396Z,93432.22
2023-02-19T19:32:52.468Z,93439.44
2023-02-19T19:35:21.514Z,93443.66
2023-02-19T19:37:49.962Z,93447.00
2023-02-19T19:40:18.692Z,93446.63
2023-02-19T19:42:46.673Z,93447.06
2023-02-19T19:45:15.585Z,93443.81
2023-02-19T19:47:43.179Z,93449.38
2023-02-19T19:50:13.333Z,93445.03
2023-02-19T19:52:40.673Z,93447.25
2023-02-19T19:55:08.985Z,93453.94
2023-02-19T19:57:39.038Z,93458.84
2023-02-19T20:00:09.461Z,93460.09
2023-02-19T20:02:39.806Z,93456.88
2023-02-19T20:05:07.765Z,93465.25
2023-02-19T20:07:35.218Z,93462.09
2023-02-19T20:10:02.831Z,93466.56
2023-02-19T20:12:30.675Z,93462.34
2023-02-19T20:14:58.114Z,93462.19
2023-02-19T20:17:27.596Z,93456.19
2023-02-19T20:19:55.380Z,93467.09
2023-02-19T20:22:22.786Z,93469.50
2023-02-19T20:24:52.080Z,93464.13
2023-02-19T20:27:21.129Z,93471.66
2023-02-19T20:29:48.906Z,93475.72
2023-02-19T20:32:20.214Z,93472.97
2023-02-19T20:34:48.743Z,93469.22
2023-02-19T20:37:16.296Z,93470.69
2023-02-19T20:39:43.655Z,93473.91
2023-02-19T20:42:11.470Z,93477.34
2023-02-19T20:44:38.906Z,93471.53
2023-02-19T20:47:06.575Z,93470.66
2023-02-19T20:49:34.657Z,93467.31
2023-02-19T20:52:06.936Z,93470.97
2023-02-19T20:54:36.042Z,93475.75
2023-02-19T20:57:05.543Z,93482.91
2023-02-19T20:59:35.614Z,93491.47
2023-02-19T21:02:08.966Z,93481.69
2023-02-19T21:04:38.829Z,93480.03
2023-02-19T21:07:07.216Z,93480.34
2023-02-19T21:09:34.627Z,93480.19
2023-02-19T21:12:01.976Z,93475.81
2023-02-19T21:14:29.755Z,93473.12
2023-02-19T21:16:57.136Z,93471.72
2023-02-19T21:19:24.607Z,93475.69
2023-02-19T21:21:52.547Z,93478.94
2023-02-19T21:24:20.034Z,93483.69
2023-02-19T21:26:47.498Z,93474.47
2023-02-19T21:29:19.213Z,93474.25
2023-02-19T21:31:49.076Z,93477.00
2023-02-19T21:34:19.412Z,93480.66
2023-02-19T21:36:47.318Z,93485.66
2023-02-19T21:39:17.229Z,93491.06
2023-02-19T21:41:45.110Z,93494.25
2023-02-19T21:44:12.761Z,93487.66
2023-02-19T21:46:40.532Z,93489.66
2023-02-19T21:49:08.239Z,93488.22
2023-02-19T21:51:38.313Z,93492.19
2023-02-19T21:54:06.980Z,93488.22
2023-02-19T21:56:36.497Z,93483.44
2023-02-19T21:59:04.360Z,93503.50
2023-02-19T22:01:38.887Z,93497.38
2023-02-19T22:04:07.498Z,93500.56
2023-02-19T22:06:35.166Z,93502.25
2023-02-19T22:09:03.837Z,93504.53
2023-02-19T22:11:31.507Z,93508.63
2023-02-19T22:13:58.936Z,93501.78
2023-02-19T22:16:26.725Z,93513.53
2023-02-19T22:18:57.060Z,93513.19
2023-02-19T22:21:27.436Z,93512.34
2023-02-19T22:23:55.476Z,93503.22
2023-02-19T22:26:29.399Z,93518.12
2023-02-19T22:28:58.439Z,93521.31
2023-02-19T22:31:26.974Z,93519.03
2023-02-19T22:33:55.749Z,93523.94
2023-02-19T22:36:26.361Z,93529.75
2023-02-19T22:38:54.323Z,93531.69
2023-02-19T22:41:21.658Z,93538.28
2023-02-19T22:43:50.259Z,93533.53
2023-02-19T22:46:20.635Z,93543.66
2023-02-19T22:48:47.935Z,93547.97
2023-02-19T22:51:18.395Z,93549.91
2023-02-19T22:53:47.134Z,93549.78
2023-02-19T22:56:16.284Z,93570.16
2023-02-19T22:58:45.713Z,93556.88
2023-02-19T23:01:14.694Z,93561.53
2023-02-19T23:03:49.608Z,93565.84
2023-02-19T23:06:20.876Z,93565.28
2023-02-19T23:08:49.507Z,93554.72
2023-02-19T23:11:28.006Z,93553.66
2023-02-19T23:13:55.735Z,93556.28
2023-02-19T23:16:23.398Z,93552.31
2023-02-19T23:18:50.914Z,93558.69
2023-02-19T23:21:19.420Z,93557.19
2023-02-19T23:23:47.029Z,93549.91
2023-02-19T23:26:15.661Z,93564.12
2023-02-19T23:28:44.873Z,93546.84
2023-02-19T23:31:13.814Z,93569.78
2023-02-19T23:33:41.379Z,93559.34
2023-02-19T23:36:10.560Z,93567.41
2023-02-19T23:38:38.345Z,93569.91
2023-02-19T23:41:10.706Z,93572.25
2023-02-19T23:43:39.638Z,93563.28
2023-02-19T23:46:07.499Z,93575.69
2023-02-19T23:48:35.007Z,93571.34
2023-02-19T23:51:02.619Z,93589.75
2023-02-19T23:53:29.950Z,93593.03
2023-02-19T23:55:57.250Z,93609.44
2023-02-19T23:58:24.896Z,93611.47
